Mehoopany, Pennsylvania
Current Conditions -  °F | °C
As of 11:54 AM on Saturday 22 Nov 2014 (Local Time) from KAVP Reporting Station
Clear Clear  
Wind Chill: 30°   Ceiling: Unl
Heat Index: 38°   Visibility: 10mi
Dew Point: 11°   Wind: 14mph
Humidity: 33%   Direction: 250°WSW
Pressure: 30.28"   Gusts: NA
Location:  41.56°N, 76.06°W
Report Text: KAVP 221654Z AUTO 25012KT 10SM CLR 03/M12 A3028 RMK AO2 SLP261 T00331117
Loading
Personal Weather Stations






























Interactive Weather Map New forecast layout! Learn more

10-Day Weather Forecast

Advertisements
Track Severe Weather on mobile